Terminal Aerodrome Forecast
Issued by NWS

Home | Current Version | Previous Version | Text Only | Print | Product List | Glossary On
Versions: 1 2 3 4 5 6 7 8 9 10 11 12 13 14 15 16 17 18
151
FTUS43 KLSX 250520
TAFCPS
TAF
KCPS 250520Z 2506/2606 31009KT P6SM SCT050
     FM252300 23006KT P6SM FEW200
     FM260200 15003KT P6SM SCT250=

USA.gov is the U.S. government's official web portal to all federal, state and local government web resources and services.